Stringtown, Illinois
Current Conditions -  °F | °C
As of 12:15 AM on Sunday 21 Dec 2014 (Local Time) from KSLO Reporting Station
Overcast Overcast  
Wind Chill: 33°   Ceiling: 2900
Heat Index: 37°   Visibility: 10mi
Dew Point: 30°   Wind: 5mph
Humidity: 75%   Direction: 130°SE
Pressure: 30.27"   Gusts: NA
Location:  38.8463°N, 89.0894°W
Report Text: KSLO 210615Z AUTO 13004KT 10SM OVC029 03/M01 A3027 RMK AO2 T00281012
Loading
Personal Weather Stations






























Interactive Weather Map New forecast layout! Learn more

10-Day Weather Forecast

Advertisements
Track Severe Weather on mobile